createdAt,value
2018-12-21T00:01:03.471Z,32.97
2018-12-21T00:03:30.917Z,31.13
2018-12-21T00:05:58.376Z,31.50
2018-12-21T00:08:25.811Z,31.37
2018-12-21T00:10:53.276Z,31.47
2018-12-21T00:13:20.790Z,31.70
2018-12-21T00:15:48.308Z,31.97
2018-12-21T00:18:15.752Z,30.03
2018-12-21T00:20:43.197Z,32.20
2018-12-21T00:23:10.679Z,32.80
2018-12-21T00:25:38.123Z,31.80
2018-12-21T00:28:05.571Z,32.23
2018-12-21T00:30:32.580Z,34.10
2018-12-21T00:33:05.659Z,33.23
2018-12-21T00:35:38.914Z,34.17
2018-12-21T00:38:12.093Z,32.80
2018-12-21T00:40:45.228Z,32.87
2018-12-21T00:43:15.528Z,32.50
2018-12-21T00:45:44.936Z,34.10
2018-12-21T00:48:12.379Z,33.57
2018-12-21T00:50:39.879Z,33.30
2018-12-21T00:53:07.336Z,31.47
2018-12-21T00:55:34.758Z,34.57
2018-12-21T00:58:02.844Z,32.73
2018-12-21T01:00:30.339Z,31.93
2018-12-21T01:02:57.796Z,32.20
2018-12-21T01:05:25.228Z,33.93
2018-12-21T01:07:52.683Z,34.07
2018-12-21T01:10:20.145Z,31.50
2018-12-21T01:12:47.598Z,34.33
2018-12-21T01:15:15.108Z,32.73
2018-12-21T01:17:42.551Z,33.77
2018-12-21T01:20:10.029Z,32.43
2018-12-21T01:22:37.629Z,34.27
2018-12-21T01:25:05.251Z,32.40
2018-12-21T01:27:32.744Z,34.97
2018-12-21T01:30:00.237Z,34.63
2018-12-21T01:32:27.684Z,31.87
2018-12-21T01:34:55.145Z,33.13
2018-12-21T01:37:22.623Z,33.57
2018-12-21T01:39:50.081Z,33.87
2018-12-21T01:42:17.519Z,35.87
2018-12-21T01:44:45.168Z,35.60
2018-12-21T01:47:12.623Z,35.93
2018-12-21T01:49:40.059Z,36.27
2018-12-21T01:52:07.524Z,35.27
2018-12-21T01:54:34.961Z,35.83
2018-12-21T01:57:02.447Z,36.13
2018-12-21T01:59:29.895Z,35.27
2018-12-21T02:01:57.356Z,35.27
2018-12-21T02:04:24.836Z,34.57
2018-12-21T02:06:52.271Z,36.47
2018-12-21T02:09:19.763Z,35.07
2018-12-21T02:11:47.216Z,35.83
2018-12-21T02:14:14.656Z,33.80
2018-12-21T02:16:42.117Z,34.47
2018-12-21T02:19:09.640Z,36.03
2018-12-21T02:21:37.100Z,35.10
2018-12-21T02:24:04.556Z,33.47
2018-12-21T02:26:33.038Z,35.63
2018-12-21T02:29:00.531Z,36.23
2018-12-21T02:31:27.964Z,34.50
2018-12-21T02:33:55.616Z,35.50
2018-12-21T02:36:23.073Z,35.57
2018-12-21T02:38:50.526Z,34.63
2018-12-21T02:41:17.972Z,37.33
2018-12-21T02:43:45.423Z,36.37
2018-12-21T02:46:13.768Z,35.23
2018-12-21T02:48:41.228Z,34.53
2018-12-21T02:51:08.666Z,37.47
2018-12-21T02:53:36.136Z,34.43
2018-12-21T02:56:03.694Z,35.40
2018-12-21T02:58:31.148Z,35.57
2018-12-21T03:00:58.683Z,36.83
2018-12-21T03:03:26.148Z,34.43
2018-12-21T03:05:53.630Z,34.93
2018-12-21T03:08:21.178Z,33.73
2018-12-21T03:10:48.646Z,33.20
2018-12-21T03:13:16.107Z,36.73
2018-12-21T03:15:43.589Z,33.10
2018-12-21T03:18:11.030Z,32.53
2018-12-21T03:20:38.493Z,33.23
2018-12-21T03:23:05.971Z,33.17
2018-12-21T03:25:33.433Z,32.10
2018-12-21T03:28:01.098Z,31.30
2018-12-21T03:30:28.574Z,31.20
2018-12-21T03:32:56.026Z,31.30
2018-12-21T03:35:23.597Z,32.23
2018-12-21T03:37:51.152Z,32.63
2018-12-21T03:40:18.683Z,30.90
2018-12-21T03:42:46.149Z,29.97
2018-12-21T03:45:13.596Z,29.33
2018-12-21T03:47:41.134Z,31.57
2018-12-21T03:50:08.656Z,27.40
2018-12-21T03:52:36.193Z,27.13
2018-12-21T03:55:03.862Z,26.80
2018-12-21T03:57:31.320Z,27.70
2018-12-21T03:59:58.790Z,26.87
2018-12-21T04:02:26.231Z,28.43
2018-12-21T04:04:53.678Z,27.33
2018-12-21T04:07:27.659Z,27.63
2018-12-21T04:09:55.117Z,25.53
2018-12-21T04:12:22.568Z,25.40
2018-12-21T04:14:50.031Z,24.33
2018-12-21T04:17:17.473Z,25.73
2018-12-21T04:19:44.928Z,27.20
2018-12-21T04:22:12.427Z,26.57
2018-12-21T04:24:39.985Z,26.77
2018-12-21T04:27:07.459Z,26.33
2018-12-21T04:29:34.952Z,25.57
2018-12-21T04:32:02.417Z,25.40
2018-12-21T04:34:29.877Z,23.83
2018-12-21T04:36:57.323Z,24.07
2018-12-21T04:39:24.784Z,24.17
2018-12-21T04:41:52.251Z,23.00
2018-12-21T04:44:19.694Z,24.50
2018-12-21T04:46:47.226Z,23.27
2018-12-21T04:49:15.600Z,23.67
2018-12-21T04:51:43.046Z,21.97
2018-12-21T04:54:10.503Z,24.27
2018-12-21T04:56:37.984Z,22.53
2018-12-21T04:59:05.562Z,23.43
2018-12-21T05:01:33.581Z,23.13
2018-12-21T05:04:01.020Z,22.93
2018-12-21T05:06:36.978Z,22.23
2018-12-21T05:09:05.632Z,23.03
2018-12-21T05:11:33.090Z,23.57
2018-12-21T05:14:00.555Z,22.83
2018-12-21T05:16:28.083Z,24.73
2018-12-21T05:18:55.632Z,23.33
2018-12-21T05:21:23.081Z,23.87
2018-12-21T05:23:50.527Z,25.13
2018-12-21T05:26:17.997Z,22.47
2018-12-21T05:28:45.450Z,23.20
2018-12-21T05:31:28.262Z,22.73
2018-12-21T05:33:50.421Z,23.33
2018-12-21T05:36:17.886Z,22.23
2018-12-21T05:38:45.333Z,20.70
2018-12-21T05:41:12.797Z,21.50
2018-12-21T05:43:40.254Z,21.07
2018-12-21T05:46:07.728Z,21.03
2018-12-21T05:48:35.281Z,20.20
2018-12-21T05:51:02.737Z,21.77
2018-12-21T05:53:30.372Z,18.70
2018-12-21T05:55:57.797Z,19.57
2018-12-21T05:58:25.433Z,19.57
2018-12-21T06:00:52.894Z,20.07
2018-12-21T06:03:20.338Z,19.00
2018-12-21T06:05:47.810Z,17.07
2018-12-21T06:08:15.257Z,19.37
2018-12-21T06:10:44.769Z,19.53
2018-12-21T06:13:12.233Z,18.43
2018-12-21T06:15:39.681Z,18.20
2018-12-21T06:18:07.150Z,17.50
2018-12-21T06:20:34.633Z,17.13
2018-12-21T06:23:09.270Z,15.17
2018-12-21T06:25:31.524Z,16.10
2018-12-21T06:27:59.655Z,16.77
2018-12-21T06:30:27.093Z,15.57
2018-12-21T06:32:54.573Z,16.70
2018-12-21T06:35:22.009Z,16.63
2018-12-21T06:37:49.458Z,15.67
2018-12-21T06:40:16.938Z,15.77
2018-12-21T06:42:44.405Z,15.60
2018-12-21T06:45:11.861Z,16.20
2018-12-21T06:47:39.310Z,16.63
2018-12-21T06:50:07.014Z,16.80
2018-12-21T06:52:34.457Z,15.83
2018-12-21T06:55:01.914Z,17.97
2018-12-21T06:57:29.381Z,15.53
2018-12-21T06:59:56.823Z,15.43
2018-12-21T07:02:24.293Z,15.97
2018-12-21T07:04:56.781Z,15.60
2018-12-21T07:07:24.247Z,17.40
2018-12-21T07:09:52.467Z,16.20
2018-12-21T07:12:19.944Z,15.90
2018-12-21T07:14:47.473Z,15.23
2018-12-21T07:17:14.939Z,15.93
2018-12-21T07:19:42.388Z,15.67
2018-12-21T07:22:09.902Z,13.87
2018-12-21T07:24:37.341Z,15.60
2018-12-21T07:27:04.854Z,14.80
2018-12-21T07:29:32.294Z,15.50
2018-12-21T07:31:59.765Z,15.50
2018-12-21T07:34:27.232Z,14.90
2018-12-21T07:36:54.771Z,14.90
2018-12-21T07:39:22.229Z,13.73
2018-12-21T07:41:49.669Z,15.30
2018-12-21T07:44:17.168Z,14.17
2018-12-21T07:46:44.641Z,14.33
2018-12-21T07:49:12.117Z,13.77
2018-12-21T07:51:39.559Z,15.20
2018-12-21T07:54:07.006Z,14.30
2018-12-21T07:56:34.477Z,14.50
2018-12-21T07:59:01.914Z,14.70
2018-12-21T08:01:29.426Z,13.83
2018-12-21T08:03:56.901Z,14.53
2018-12-21T08:06:24.330Z,14.47
2018-12-21T08:08:51.792Z,13.70
2018-12-21T08:11:19.353Z,13.63
2018-12-21T08:13:46.789Z,16.17
2018-12-21T08:16:14.226Z,14.23
2018-12-21T08:18:41.694Z,13.73
2018-12-21T08:21:09.186Z,13.90
2018-12-21T08:23:44.137Z,14.30
2018-12-21T08:26:06.148Z,14.57
2018-12-21T08:28:33.589Z,14.27
2018-12-21T08:31:01.056Z,13.67
2018-12-21T08:33:28.518Z,14.83
2018-12-21T08:35:55.971Z,15.03
2018-12-21T08:38:23.433Z,15.37
2018-12-21T08:40:50.878Z,14.83
2018-12-21T08:43:18.342Z,13.77
2018-12-21T08:45:45.805Z,13.30
2018-12-21T08:48:13.246Z,14.17
2018-12-21T08:50:42.033Z,13.63
2018-12-21T08:53:09.485Z,13.87
2018-12-21T08:55:36.995Z,12.67
2018-12-21T08:58:04.458Z,12.77
2018-12-21T09:00:31.909Z,12.87
2018-12-21T09:02:59.353Z,12.80
2018-12-21T09:05:26.881Z,12.03
2018-12-21T09:07:54.326Z,12.00
2018-12-21T09:10:21.772Z,10.90
2018-12-21T09:12:49.289Z,12.67
2018-12-21T09:15:16.748Z,11.50
2018-12-21T09:17:44.212Z,11.63
2018-12-21T09:20:11.704Z,12.40
2018-12-21T09:22:39.140Z,13.00
2018-12-21T09:25:06.664Z,11.47
2018-12-21T09:27:34.134Z,10.90
2018-12-21T09:30:01.602Z,11.73
2018-12-21T09:32:29.068Z,11.80
2018-12-21T09:34:56.534Z,12.00
2018-12-21T09:37:23.981Z,10.67
2018-12-21T09:39:51.450Z,10.60
2018-12-21T09:42:18.915Z,9.93
2018-12-21T09:44:52.524Z,9.97
2018-12-21T09:47:15.829Z,10.80
2018-12-21T09:49:43.278Z,10.83
2018-12-21T09:52:10.786Z,10.43
2018-12-21T09:54:38.222Z,10.90
2018-12-21T09:57:05.742Z,9.90
2018-12-21T09:59:33.203Z,9.80
2018-12-21T10:02:00.668Z,9.90
2018-12-21T10:04:28.129Z,9.30
2018-12-21T10:06:55.594Z,10.67
2018-12-21T10:09:23.057Z,10.10
2018-12-21T10:11:50.517Z,10.10
2018-12-21T10:14:17.973Z,10.73
2018-12-21T10:16:45.425Z,10.43
2018-12-21T10:19:12.887Z,8.87
2018-12-21T10:21:40.373Z,9.37
2018-12-21T10:24:07.829Z,8.73
2018-12-21T10:26:35.285Z,8.93
2018-12-21T10:29:02.725Z,9.43
2018-12-21T10:31:30.202Z,8.57
2018-12-21T10:33:57.721Z,9.47
2018-12-21T10:36:25.180Z,8.90
2018-12-21T10:38:52.637Z,9.43
2018-12-21T10:41:20.088Z,9.87
2018-12-21T10:43:47.559Z,9.27
2018-12-21T10:46:15.001Z,8.97
2018-12-21T10:48:42.500Z,8.57
2018-12-21T10:51:10.018Z,9.70
2018-12-21T10:53:39.353Z,10.30
2018-12-21T10:56:06.914Z,10.87
2018-12-21T10:58:34.375Z,9.10
2018-12-21T11:01:01.841Z,9.57
2018-12-21T11:03:29.294Z,10.13
2018-12-21T11:05:56.749Z,10.20
2018-12-21T11:08:24.215Z,9.97
2018-12-21T11:10:52.912Z,9.00
2018-12-21T11:13:20.369Z,9.57
2018-12-21T11:15:47.835Z,9.20
2018-12-21T11:18:15.308Z,7.80
2018-12-21T11:20:42.733Z,9.30
2018-12-21T11:23:10.202Z,10.00
2018-12-21T11:25:37.650Z,9.70
2018-12-21T11:28:05.163Z,7.83
2018-12-21T11:30:32.590Z,8.73
2018-12-21T11:33:00.061Z,9.03
2018-12-21T11:35:27.509Z,9.77
2018-12-21T11:37:55.044Z,9.33
2018-12-21T11:40:22.565Z,10.17
2018-12-21T11:42:50.013Z,9.73
2018-12-21T11:45:17.466Z,9.20
2018-12-21T11:47:44.913Z,9.93
2018-12-21T11:50:12.459Z,10.47
2018-12-21T11:52:39.899Z,9.67
2018-12-21T11:55:07.458Z,8.80
2018-12-21T11:57:34.905Z,8.40
2018-12-21T12:00:02.453Z,9.40
2018-12-21T12:02:29.922Z,9.07
2018-12-21T12:04:57.415Z,9.17
2018-12-21T12:07:24.965Z,9.53
2018-12-21T12:09:52.417Z,7.83
2018-12-21T12:12:19.881Z,9.23
2018-12-21T12:14:47.314Z,8.67
2018-12-21T12:17:14.778Z,10.10
2018-12-21T12:19:42.229Z,9.13
2018-12-21T12:22:09.697Z,9.83
2018-12-21T12:24:37.178Z,8.47
2018-12-21T12:27:04.671Z,9.53
2018-12-21T12:29:32.109Z,9.63
2018-12-21T12:31:59.575Z,9.97
2018-12-21T12:34:27.022Z,10.27
2018-12-21T12:36:54.488Z,10.67
2018-12-21T12:39:21.939Z,10.33
2018-12-21T12:41:49.402Z,12.67
2018-12-21T12:44:16.866Z,11.33
2018-12-21T12:46:44.314Z,12.07
2018-12-21T12:49:11.780Z,11.73
2018-12-21T12:51:39.213Z,13.60
2018-12-21T12:54:06.731Z,11.70
2018-12-21T12:56:34.266Z,10.03
2018-12-21T12:59:01.742Z,11.47
2018-12-21T13:01:29.170Z,10.97
2018-12-21T13:03:56.629Z,9.93
2018-12-21T13:06:24.074Z,11.27
2018-12-21T13:08:51.514Z,10.97
2018-12-21T13:11:18.970Z,10.80
2018-12-21T13:13:46.417Z,9.17
2018-12-21T13:16:13.890Z,9.77
2018-12-21T13:18:41.361Z,7.63
2018-12-21T13:21:08.806Z,6.80
2018-12-21T13:23:36.285Z,8.60
2018-12-21T13:26:03.797Z,8.20
2018-12-21T13:28:31.265Z,7.70
2018-12-21T13:30:58.713Z,8.20
2018-12-21T13:33:26.198Z,7.60
2018-12-21T13:35:53.650Z,6.07
2018-12-21T13:38:21.101Z,6.23
2018-12-21T13:40:48.566Z,5.97
2018-12-21T13:43:16.046Z,7.60
2018-12-21T13:45:53.657Z,7.90
2018-12-21T13:48:21.105Z,7.90
2018-12-21T13:50:48.593Z,7.70
2018-12-21T13:53:16.025Z,6.97
2018-12-21T13:55:43.470Z,6.70
2018-12-21T13:58:10.930Z,8.07
2018-12-21T14:00:38.398Z,6.87
2018-12-21T14:03:05.873Z,7.70
2018-12-21T14:05:33.337Z,8.63
2018-12-21T14:08:00.814Z,7.63
2018-12-21T14:10:28.253Z,7.83
2018-12-21T14:12:55.803Z,8.73
2018-12-21T14:15:23.261Z,7.57
2018-12-21T14:17:50.741Z,8.33
2018-12-21T14:20:18.189Z,6.90
2018-12-21T14:22:45.666Z,7.47
2018-12-21T14:25:13.189Z,6.90
2018-12-21T14:27:40.638Z,7.77
2018-12-21T14:30:08.444Z,7.50
2018-12-21T14:32:35.945Z,7.40
2018-12-21T14:35:03.986Z,6.70
2018-12-21T14:37:31.454Z,7.70
2018-12-21T14:39:58.938Z,7.83
2018-12-21T14:42:26.462Z,9.00
2018-12-21T14:44:53.992Z,7.87
2018-12-21T14:47:21.433Z,8.13
2018-12-21T14:49:48.886Z,8.83
2018-12-21T14:52:16.424Z,7.37
2018-12-21T14:54:43.861Z,8.13
2018-12-21T14:57:11.437Z,8.77
2018-12-21T14:59:38.887Z,9.27
2018-12-21T15:02:06.454Z,9.60
2018-12-21T15:04:33.902Z,9.87
2018-12-21T15:07:01.377Z,10.07
2018-12-21T15:09:28.846Z,9.23
2018-12-21T15:11:56.290Z,10.90
2018-12-21T15:14:23.757Z,9.00
2018-12-21T15:16:51.271Z,10.17
2018-12-21T15:19:18.746Z,10.83
2018-12-21T15:21:46.201Z,12.07
2018-12-21T15:24:13.659Z,9.60
2018-12-21T15:26:41.112Z,9.83
2018-12-21T15:29:08.578Z,13.87
2018-12-21T15:31:36.020Z,12.63
2018-12-21T15:34:03.589Z,11.77
2018-12-21T15:36:31.041Z,12.53
2018-12-21T15:38:58.565Z,11.83
2018-12-21T15:41:26.137Z,10.60
2018-12-21T15:43:53.603Z,12.67
2018-12-21T15:46:21.053Z,12.93
2018-12-21T15:48:48.509Z,13.33
2018-12-21T15:51:15.998Z,12.50
2018-12-21T15:53:43.466Z,14.40
2018-12-21T15:56:10.913Z,12.60
2018-12-21T15:58:38.499Z,16.17
2018-12-21T16:01:06.073Z,14.20
2018-12-21T16:03:33.574Z,14.47
2018-12-21T16:06:01.105Z,13.83
2018-12-21T16:08:28.548Z,11.60
2018-12-21T16:10:56.039Z,13.33
2018-12-21T16:13:23.554Z,12.67
2018-12-21T16:15:50.997Z,13.93
2018-12-21T16:18:18.457Z,11.13
2018-12-21T16:20:45.917Z,11.40
2018-12-21T16:23:13.375Z,11.93
2018-12-21T16:25:40.899Z,12.07
2018-12-21T16:28:08.358Z,12.30
2018-12-21T16:30:35.844Z,12.17
2018-12-21T16:33:03.273Z,12.80
2018-12-21T16:35:30.757Z,11.17
2018-12-21T16:37:58.240Z,11.60
2018-12-21T16:40:25.793Z,11.90
2018-12-21T16:42:53.262Z,13.10
2018-12-21T16:45:20.740Z,15.23
2018-12-21T16:47:48.184Z,14.67
2018-12-21T16:50:15.659Z,12.37
2018-12-21T16:52:43.120Z,14.57
2018-12-21T16:55:10.606Z,13.03
2018-12-21T16:57:38.065Z,15.93
2018-12-21T17:00:09.242Z,17.87
2018-12-21T17:02:36.715Z,19.20
2018-12-21T17:05:05.615Z,19.67
2018-12-21T17:07:33.071Z,19.87
2018-12-21T17:10:00.516Z,22.93
2018-12-21T17:12:27.989Z,21.70
2018-12-21T17:14:55.434Z,24.60
2018-12-21T17:17:22.905Z,25.33
2018-12-21T17:19:50.346Z,27.73
2018-12-21T17:22:18.608Z,29.47
2018-12-21T17:24:46.094Z,29.43
2018-12-21T17:27:13.558Z,32.23
2018-12-21T17:29:41.033Z,29.97
2018-12-21T17:32:08.514Z,32.27
2018-12-21T17:34:35.957Z,30.80
2018-12-21T17:37:03.506Z,34.93
2018-12-21T17:39:30.973Z,32.77
2018-12-21T17:41:58.441Z,35.50
2018-12-21T17:44:25.890Z,38.10
2018-12-21T17:46:53.390Z,34.63
2018-12-21T17:49:20.840Z,34.23
2018-12-21T17:51:48.290Z,34.83
2018-12-21T17:54:15.755Z,34.00
2018-12-21T17:56:43.202Z,30.83
2018-12-21T17:59:10.670Z,32.43
2018-12-21T18:01:39.389Z,30.67
2018-12-21T18:04:06.866Z,37.57
2018-12-21T18:06:34.353Z,29.97
2018-12-21T18:09:01.796Z,28.87
2018-12-21T18:11:30.058Z,28.13
2018-12-21T18:13:57.534Z,23.10
2018-12-21T18:16:25.005Z,27.17
2018-12-21T18:18:52.457Z,23.10
2018-12-21T18:21:19.940Z,20.53
2018-12-21T18:23:47.589Z,15.47
2018-12-21T18:26:15.071Z,16.73
2018-12-21T18:28:42.590Z,18.60
2018-12-21T18:31:12.777Z,17.80
2018-12-21T18:33:41.669Z,21.70
2018-12-21T18:36:09.240Z,17.80
2018-12-21T18:38:37.277Z,16.40
2018-12-21T18:41:04.800Z,14.77
2018-12-21T18:43:32.269Z,10.80
2018-12-21T18:46:01.343Z,12.87
2018-12-21T18:48:28.796Z,12.07
2018-12-21T18:50:56.229Z,9.97
2018-12-21T18:53:23.696Z,9.63
2018-12-21T18:55:51.221Z,7.77
2018-12-21T18:58:18.689Z,9.90
2018-12-21T19:00:46.137Z,10.30
2018-12-21T19:03:13.607Z,9.70
2018-12-21T19:05:41.140Z,10.80
2018-12-21T19:08:08.609Z,10.97
2018-12-21T19:10:36.075Z,11.60
2018-12-21T19:13:03.539Z,9.73
2018-12-21T19:15:31.038Z,12.00
2018-12-21T19:17:58.557Z,8.47
2018-12-21T19:20:26.003Z,9.47
2018-12-21T19:22:53.470Z,8.97
2018-12-21T19:25:20.934Z,8.20
2018-12-21T19:27:48.409Z,7.80
2018-12-21T19:30:15.851Z,7.93
2018-12-21T19:32:43.304Z,9.53
2018-12-21T19:35:10.866Z,9.37
2018-12-21T19:37:38.316Z,8.60
2018-12-21T19:40:07.423Z,7.43
2018-12-21T19:42:34.883Z,7.93
2018-12-21T19:45:02.424Z,7.70
2018-12-21T19:47:29.884Z,6.90
2018-12-21T19:49:57.344Z,6.23
2018-12-21T19:52:24.801Z,7.00
2018-12-21T19:54:52.480Z,7.70
2018-12-21T19:57:19.920Z,6.20
2018-12-21T19:59:47.435Z,6.03
2018-12-21T20:02:14.893Z,7.03
2018-12-21T20:04:42.352Z,8.30
2018-12-21T20:07:09.805Z,7.23
2018-12-21T20:09:37.269Z,7.90
2018-12-21T20:12:04.777Z,7.27
2018-12-21T20:14:32.221Z,6.33
2018-12-21T20:16:59.694Z,6.33
2018-12-21T20:19:27.188Z,6.23
2018-12-21T20:21:54.641Z,6.70
2018-12-21T20:24:23.252Z,6.67
2018-12-21T20:26:51.129Z,6.13
2018-12-21T20:29:18.587Z,6.10
2018-12-21T20:31:46.111Z,6.67
2018-12-21T20:34:13.660Z,6.57
2018-12-21T20:36:41.174Z,5.40
2018-12-21T20:39:10.733Z,5.63
2018-12-21T20:41:38.275Z,5.77
2018-12-21T20:44:05.789Z,6.03
2018-12-21T20:46:33.250Z,4.97
2018-12-21T20:49:00.713Z,6.90
2018-12-21T20:51:28.181Z,6.40
2018-12-21T20:53:55.630Z,7.13
2018-12-21T20:56:23.081Z,7.37
2018-12-21T20:58:50.585Z,6.70
2018-12-21T21:01:18.031Z,7.20
2018-12-21T21:03:45.480Z,6.47
2018-12-21T21:06:12.921Z,7.13
2018-12-21T21:08:40.381Z,5.03
2018-12-21T21:11:07.829Z,5.27
2018-12-21T21:13:35.274Z,5.10
2018-12-21T21:16:02.766Z,5.27
2018-12-21T21:18:30.200Z,4.57
2018-12-21T21:20:57.698Z,5.87
2018-12-21T21:23:25.142Z,7.03
2018-12-21T21:25:52.604Z,7.30
2018-12-21T21:28:20.070Z,7.77
2018-12-21T21:30:47.573Z,8.90
2018-12-21T21:33:15.022Z,10.50
2018-12-21T21:35:42.519Z,11.27
2018-12-21T21:38:09.997Z,11.33
2018-12-21T21:40:37.549Z,10.10
2018-12-21T21:43:05.575Z,10.93
2018-12-21T21:45:33.036Z,11.00
2018-12-21T21:48:00.853Z,10.30
2018-12-21T21:50:28.334Z,11.60
2018-12-21T21:52:55.771Z,11.60
2018-12-21T21:55:24.248Z,10.93
2018-12-21T21:57:51.974Z,8.80
2018-12-21T22:00:19.464Z,9.57
2018-12-21T22:02:47.068Z,9.57
2018-12-21T22:05:14.529Z,11.77
2018-12-21T22:07:42.005Z,12.03
2018-12-21T22:10:09.517Z,13.20
2018-12-21T22:12:36.974Z,13.23
2018-12-21T22:15:05.324Z,12.83
2018-12-21T22:17:32.763Z,13.27
2018-12-21T22:20:00.196Z,13.53
2018-12-21T22:22:27.657Z,14.20
2018-12-21T22:24:55.105Z,14.27
2018-12-21T22:27:22.573Z,13.53
2018-12-21T22:29:50.025Z,13.57
2018-12-21T22:32:17.511Z,14.57
2018-12-21T22:34:44.990Z,13.13
2018-12-21T22:37:12.456Z,11.27
2018-12-21T22:39:39.986Z,11.53
2018-12-21T22:42:07.458Z,13.73
2018-12-21T22:44:34.888Z,9.93
2018-12-21T22:47:02.349Z,8.17
2018-12-21T22:49:29.782Z,7.47
2018-12-21T22:51:57.241Z,7.40
2018-12-21T22:54:24.691Z,4.93
2018-12-21T22:56:52.152Z,5.27
2018-12-21T22:59:19.650Z,5.27
2018-12-21T23:01:47.112Z,5.00
2018-12-21T23:04:14.567Z,4.80
2018-12-21T23:06:42.013Z,5.20
2018-12-21T23:09:09.446Z,4.80
2018-12-21T23:11:36.961Z,4.47
2018-12-21T23:14:04.430Z,4.20
2018-12-21T23:16:31.896Z,4.13
2018-12-21T23:18:59.328Z,4.90
2018-12-21T23:21:26.857Z,4.40
2018-12-21T23:23:54.305Z,4.07
2018-12-21T23:26:21.770Z,4.27
2018-12-21T23:28:49.228Z,3.63
2018-12-21T23:31:16.736Z,4.10
2018-12-21T23:33:44.192Z,4.03
2018-12-21T23:36:11.625Z,3.93
2018-12-21T23:38:39.109Z,3.37
2018-12-21T23:41:06.561Z,4.30
2018-12-21T23:43:33.995Z,4.03
2018-12-21T23:46:01.463Z,3.67
2018-12-21T23:48:28.924Z,2.93
2018-12-21T23:50:56.393Z,2.70
2018-12-21T23:53:23.900Z,4.03
2018-12-21T23:55:51.810Z,3.60
2018-12-21T23:58:19.266Z,3.40
